createdAt,value
2018-03-27T00:02:18.169Z,97243.27
2018-03-27T00:04:45.890Z,97245.92
2018-03-27T00:07:13.406Z,97240.88
2018-03-27T00:09:41.446Z,97245.44
2018-03-27T00:12:09.181Z,97243.92
2018-03-27T00:14:36.707Z,97249.75
2018-03-27T00:17:04.228Z,97250.58
2018-03-27T00:19:31.792Z,97246.06
2018-03-27T00:21:59.309Z,97251.56
2018-03-27T00:24:26.858Z,97254.63
2018-03-27T00:27:00.996Z,97249.06
2018-03-27T00:29:40.349Z,97254.57
2018-03-27T00:32:19.713Z,97261.41
2018-03-27T00:34:59.741Z,97261.14
2018-03-27T00:37:39.084Z,97256.87
2018-03-27T00:40:18.461Z,97260.48
2018-03-27T00:42:52.802Z,97269.04
2018-03-27T00:45:20.313Z,97257.55
2018-03-27T00:47:47.822Z,97258.05
2018-03-27T00:50:15.394Z,97264.50
2018-03-27T00:52:42.908Z,97259.06
2018-03-27T00:55:10.421Z,97262.50
2018-03-27T00:57:37.969Z,97264.06
2018-03-27T01:00:05.514Z,97261.55
2018-03-27T01:02:33.033Z,97264.17
2018-03-27T01:05:06.200Z,97261.07
2018-03-27T01:07:33.716Z,97263.34
2018-03-27T01:10:01.233Z,97258.95
2018-03-27T01:12:28.942Z,97256.09
2018-03-27T01:14:56.454Z,97258.96
2018-03-27T01:17:23.981Z,97256.40
2018-03-27T01:19:51.517Z,97251.61
2018-03-27T01:22:19.049Z,97254.34
2018-03-27T01:24:46.566Z,97255.78
2018-03-27T01:27:14.109Z,97258.06
2018-03-27T01:29:41.630Z,97253.23
2018-03-27T01:32:09.154Z,97253.27
2018-03-27T01:34:36.879Z,97248.24
2018-03-27T01:37:04.421Z,97248.61
2018-03-27T01:39:32.932Z,97245.02
2018-03-27T01:42:00.470Z,97248.38
2018-03-27T01:44:27.986Z,97246.81
2018-03-27T01:46:55.519Z,97247.64
2018-03-27T01:49:23.059Z,97250.16
2018-03-27T01:51:50.581Z,97247.05
2018-03-27T01:54:18.090Z,97246.88
2018-03-27T01:56:45.629Z,97247.83
2018-03-27T01:59:13.148Z,97244.23
2018-03-27T02:01:40.677Z,97245.02
2018-03-27T02:04:08.244Z,97237.16
2018-03-27T02:06:35.758Z,97227.11
2018-03-27T02:09:03.290Z,97233.45
2018-03-27T02:11:36.497Z,97238.55
2018-03-27T02:14:09.533Z,97243.14
2018-03-27T02:16:42.778Z,97237.45
2018-03-27T02:19:15.821Z,97236.61
2018-03-27T02:21:42.809Z,97238.95
2018-03-27T02:24:11.065Z,97235.20
2018-03-27T02:26:38.585Z,97242.13
2018-03-27T02:29:06.125Z,97244.63
2018-03-27T02:31:33.702Z,97243.47
2018-03-27T02:34:01.217Z,97241.65
2018-03-27T02:36:28.762Z,97244.16
2018-03-27T02:38:56.291Z,97239.31
2018-03-27T02:41:23.802Z,97245.72
2018-03-27T02:43:51.352Z,97247.44
2018-03-27T02:46:18.874Z,97239.27
2018-03-27T02:48:46.397Z,97245.45
2018-03-27T02:51:13.944Z,97239.16
2018-03-27T02:53:41.468Z,97242.25
2018-03-27T02:56:08.990Z,97244.84
2018-03-27T02:58:36.562Z,97239.92
2018-03-27T03:01:04.081Z,97240.94
2018-03-27T03:03:31.593Z,97234.71
2018-03-27T03:05:59.138Z,97238.38
2018-03-27T03:08:26.656Z,97240.22
2018-03-27T03:10:54.181Z,97237.30
2018-03-27T03:13:21.740Z,97237.34
2018-03-27T03:15:49.263Z,97233.72
2018-03-27T03:18:16.789Z,97236.23
2018-03-27T03:20:44.333Z,97238.33
2018-03-27T03:23:11.849Z,97232.16
2018-03-27T03:25:39.368Z,97229.59
2018-03-27T03:28:06.921Z,97232.53
2018-03-27T03:30:34.439Z,97234.70
2018-03-27T03:33:01.977Z,97237.28
2018-03-27T03:35:29.565Z,97234.81
2018-03-27T03:37:57.062Z,97234.02
2018-03-27T03:40:24.582Z,97238.56
2018-03-27T03:42:52.122Z,97239.08
2018-03-27T03:45:19.640Z,97241.87
2018-03-27T03:47:47.158Z,97230.20
2018-03-27T03:50:14.710Z,97228.58
2018-03-27T03:52:42.238Z,97236.48
2018-03-27T03:55:09.761Z,97236.16
2018-03-27T03:57:37.302Z,97239.36
2018-03-27T04:00:04.822Z,97241.78
2018-03-27T04:02:32.344Z,97238.06
2018-03-27T04:04:59.890Z,97231.03
2018-03-27T04:07:27.415Z,97231.83
2018-03-27T04:09:54.929Z,97231.88
2018-03-27T04:12:22.477Z,97225.65
2018-03-27T04:14:49.991Z,97230.44
2018-03-27T04:17:17.514Z,97223.38
2018-03-27T04:19:45.058Z,97215.02
2018-03-27T04:22:13.033Z,97219.83
2018-03-27T04:24:40.578Z,97213.15
2018-03-27T04:27:08.174Z,97218.17
2018-03-27T04:29:35.696Z,97223.00
2018-03-27T04:32:03.261Z,97218.95
2018-03-27T04:34:30.776Z,97218.40
2018-03-27T04:36:58.326Z,97217.94
2018-03-27T04:39:25.869Z,97221.92
2018-03-27T04:41:53.431Z,97219.84
2018-03-27T04:44:20.975Z,97219.23
2018-03-27T04:46:48.491Z,97225.00
2018-03-27T04:49:16.043Z,97222.38
2018-03-27T04:51:43.593Z,97217.77
2018-03-27T04:54:11.116Z,97214.52
2018-03-27T04:56:38.666Z,97220.48
2018-03-27T04:59:06.274Z,97219.67
2018-03-27T05:01:33.814Z,97218.02
2018-03-27T05:04:01.357Z,97218.56
2018-03-27T05:06:28.900Z,97228.51
2018-03-27T05:08:56.428Z,97225.46
2018-03-27T05:11:23.961Z,97224.73
2018-03-27T05:13:51.502Z,97223.69
2018-03-27T05:16:19.048Z,97221.06
2018-03-27T05:18:46.574Z,97228.59
2018-03-27T05:21:14.188Z,97227.75
2018-03-27T05:23:41.653Z,97231.06
2018-03-27T05:26:09.697Z,97233.16
2018-03-27T05:28:37.266Z,97234.87
2018-03-27T05:31:04.785Z,97238.13
2018-03-27T05:33:32.333Z,97235.20
2018-03-27T05:35:59.856Z,97233.63
2018-03-27T05:38:27.417Z,97235.83
2018-03-27T05:40:55.875Z,97242.45
2018-03-27T05:43:23.409Z,97236.59
2018-03-27T05:45:50.987Z,97237.64
2018-03-27T05:48:18.506Z,97234.63
2018-03-27T05:50:46.191Z,97238.80
2018-03-27T05:53:13.715Z,97232.41
2018-03-27T05:55:41.238Z,97238.17
2018-03-27T05:58:08.777Z,97238.39
2018-03-27T06:00:36.301Z,97238.28
2018-03-27T06:03:03.982Z,97242.73
2018-03-27T06:05:31.701Z,97245.88
2018-03-27T06:07:59.218Z,97241.35
2018-03-27T06:10:26.765Z,97240.09
2018-03-27T06:12:54.290Z,97241.90
2018-03-27T06:15:22.289Z,97241.84
2018-03-27T06:17:49.809Z,97243.02
2018-03-27T06:20:17.330Z,97247.70
2018-03-27T06:22:44.870Z,97242.68
2018-03-27T06:25:12.394Z,97246.38
2018-03-27T06:27:40.370Z,97245.13
2018-03-27T06:30:07.881Z,97239.26
2018-03-27T06:32:35.404Z,97242.20
2018-03-27T06:35:03.411Z,97241.33
2018-03-27T06:37:30.922Z,97233.77
2018-03-27T06:39:58.597Z,97227.14
2018-03-27T06:42:26.108Z,97224.41
2018-03-27T06:44:53.694Z,97217.94
2018-03-27T06:47:21.237Z,97217.25
2018-03-27T06:49:48.754Z,97220.81
2018-03-27T06:52:17.245Z,97217.97
2018-03-27T06:54:45.545Z,97224.42
2018-03-27T06:57:13.999Z,97227.36
2018-03-27T06:59:41.547Z,97238.44
2018-03-27T07:02:09.061Z,97233.67
2018-03-27T07:04:37.193Z,97239.77
2018-03-27T07:07:05.669Z,97243.16
2018-03-27T07:09:33.185Z,97238.09
2018-03-27T07:12:00.734Z,97237.81
2018-03-27T07:14:28.241Z,97239.31
2018-03-27T07:16:55.982Z,97241.73
2018-03-27T07:19:23.899Z,97239.53
2018-03-27T07:21:51.766Z,97238.47
2018-03-27T07:24:19.812Z,97238.08
2018-03-27T07:26:48.294Z,97243.15
2018-03-27T07:29:15.930Z,97239.47
2018-03-27T07:31:43.446Z,97241.03
2018-03-27T07:34:11.830Z,97233.58
2018-03-27T07:36:40.310Z,97235.20
2018-03-27T07:39:07.806Z,97234.41
2018-03-27T07:41:35.366Z,97239.78
2018-03-27T07:44:03.306Z,97233.40
2018-03-27T07:46:31.652Z,97238.36
2018-03-27T07:48:59.590Z,97236.73
2018-03-27T07:51:27.574Z,97241.72
2018-03-27T07:53:55.465Z,97238.38
2018-03-27T07:56:22.993Z,97243.55
2018-03-27T07:58:50.511Z,97240.58
2018-03-27T08:01:18.939Z,97235.34
2018-03-27T08:03:47.425Z,97234.48
2018-03-27T08:06:14.975Z,97243.75
2018-03-27T08:08:42.946Z,97246.88
2018-03-27T08:11:10.530Z,97246.91
2018-03-27T08:13:38.025Z,97248.91
2018-03-27T08:16:05.541Z,97236.28
2018-03-27T08:18:34.266Z,97241.55
2018-03-27T08:21:02.178Z,97244.58
2018-03-27T08:23:30.146Z,97243.14
2018-03-27T08:25:57.717Z,97240.78
2018-03-27T08:28:26.177Z,97235.11
2018-03-27T08:30:53.836Z,97236.66
2018-03-27T08:33:21.360Z,97233.20
2018-03-27T08:35:49.005Z,97228.41
2018-03-27T08:38:16.578Z,97226.48
2018-03-27T08:40:44.129Z,97221.23
2018-03-27T08:43:11.747Z,97226.53
2018-03-27T08:45:39.265Z,97227.47
2018-03-27T08:48:06.793Z,97227.00
2018-03-27T08:50:34.341Z,97222.05
2018-03-27T08:53:01.870Z,97226.28
2018-03-27T08:55:29.421Z,97227.02
2018-03-27T08:57:56.953Z,97221.88
2018-03-27T09:00:24.483Z,97218.92
2018-03-27T09:02:52.034Z,97215.27
2018-03-27T09:05:19.572Z,97212.75
2018-03-27T09:07:47.799Z,97216.01
2018-03-27T09:10:15.353Z,97215.06
2018-03-27T09:12:42.877Z,97208.20
2018-03-27T09:15:10.757Z,97206.71
2018-03-27T09:17:38.274Z,97203.05
2018-03-27T09:20:06.265Z,97203.42
2018-03-27T09:22:34.382Z,97203.89
2018-03-27T09:25:01.998Z,97201.75
2018-03-27T09:27:29.547Z,97196.55
2018-03-27T09:29:57.152Z,97193.03
2018-03-27T09:32:24.936Z,97194.78
2018-03-27T09:34:52.644Z,97189.03
2018-03-27T09:37:20.397Z,97188.77
2018-03-27T09:39:47.952Z,97178.12
2018-03-27T09:42:15.493Z,97179.66
2018-03-27T09:44:43.136Z,97177.23
2018-03-27T09:47:11.577Z,97181.73
2018-03-27T09:49:39.224Z,97174.55
2018-03-27T09:52:07.393Z,97169.47
2018-03-27T09:54:34.941Z,97167.17
2018-03-27T09:57:03.543Z,97164.22
2018-03-27T09:59:32.169Z,97163.48
2018-03-27T10:01:59.884Z,97156.98
2018-03-27T10:04:27.556Z,97155.80
2018-03-27T10:06:57.161Z,97154.81
2018-03-27T10:09:25.033Z,97156.25
2018-03-27T10:11:56.199Z,97151.97
2018-03-27T10:14:25.926Z,97143.59
2018-03-27T10:16:55.418Z,97151.33
2018-03-27T10:19:24.381Z,97144.15
2018-03-27T10:21:52.406Z,97143.13
2018-03-27T10:24:20.418Z,97133.17
2018-03-27T10:26:48.593Z,97127.85
2018-03-27T10:29:17.124Z,97123.31
2018-03-27T10:31:45.656Z,97127.66
2018-03-27T10:34:13.209Z,97121.16
2018-03-27T10:36:40.736Z,97127.37
2018-03-27T10:39:08.543Z,97131.78
2018-03-27T10:41:36.054Z,97125.00
2018-03-27T10:44:03.966Z,97119.32
2018-03-27T10:46:31.534Z,97112.98
2018-03-27T10:48:59.084Z,97110.22
2018-03-27T10:51:26.670Z,97108.03
2018-03-27T10:53:54.192Z,97097.47
2018-03-27T10:56:21.737Z,97099.70
2018-03-27T10:58:49.290Z,97094.77
2018-03-27T11:01:16.818Z,97090.37
2018-03-27T11:03:44.551Z,97089.45
2018-03-27T11:06:12.155Z,97084.91
2018-03-27T11:08:39.685Z,97089.22
2018-03-27T11:11:07.234Z,97085.88
2018-03-27T11:13:34.779Z,97082.15
2018-03-27T11:16:02.337Z,97082.87
2018-03-27T11:18:29.852Z,97077.98
2018-03-27T11:20:57.373Z,97069.64
2018-03-27T11:23:24.922Z,97067.58
2018-03-27T11:25:52.437Z,97065.70
2018-03-27T11:28:20.326Z,97065.09
2018-03-27T11:30:47.841Z,97060.97
2018-03-27T11:33:15.360Z,97061.66
2018-03-27T11:35:42.916Z,97062.23
2018-03-27T11:38:10.437Z,97050.21
2018-03-27T11:40:38.218Z,97041.73
2018-03-27T11:43:05.744Z,97042.30
2018-03-27T11:45:33.281Z,97043.73
2018-03-27T11:48:00.834Z,97042.58
2018-03-27T11:50:28.362Z,97045.42
2018-03-27T11:52:56.322Z,97042.63
2018-03-27T11:55:23.839Z,97038.69
2018-03-27T11:57:51.362Z,97032.39
2018-03-27T12:00:18.913Z,97029.04
2018-03-27T12:02:46.685Z,97014.58
2018-03-27T12:05:14.250Z,97016.70
2018-03-27T12:07:41.790Z,97015.10
2018-03-27T12:10:09.311Z,97006.63
2018-03-27T12:12:36.849Z,97008.86
2018-03-27T12:15:04.362Z,97004.79
2018-03-27T12:17:32.059Z,97002.95
2018-03-27T12:20:00.514Z,96995.52
2018-03-27T12:22:28.043Z,96986.69
2018-03-27T12:24:55.599Z,96986.26
2018-03-27T12:27:23.113Z,96972.48
2018-03-27T12:29:50.833Z,96967.74
2018-03-27T12:32:18.361Z,96955.02
2018-03-27T12:34:45.882Z,96955.80
2018-03-27T12:37:13.430Z,96947.41
2018-03-27T12:39:40.953Z,96941.71
2018-03-27T12:42:08.660Z,96939.83
2018-03-27T12:44:37.053Z,96929.16
2018-03-27T12:47:04.566Z,96933.22
2018-03-27T12:49:32.102Z,96925.08
2018-03-27T12:51:59.620Z,96930.45
2018-03-27T12:54:28.215Z,96920.41
2018-03-27T12:56:56.167Z,96915.11
2018-03-27T12:59:23.826Z,96915.45
2018-03-27T13:01:51.369Z,96906.11
2018-03-27T13:04:18.891Z,96910.16
2018-03-27T13:06:46.601Z,96898.45
2018-03-27T13:09:14.117Z,96900.58
2018-03-27T13:11:41.663Z,96892.75
2018-03-27T13:14:10.103Z,96881.39
2018-03-27T13:16:37.659Z,96878.58
2018-03-27T13:19:05.369Z,96876.95
2018-03-27T13:21:32.881Z,96869.33
2018-03-27T13:24:01.137Z,96868.12
2018-03-27T13:26:28.682Z,96864.80
2018-03-27T13:28:56.201Z,96854.17
2018-03-27T13:31:23.914Z,96851.67
2018-03-27T13:33:51.429Z,96847.48
2018-03-27T13:36:18.946Z,96852.83
2018-03-27T13:38:46.528Z,96850.33
2018-03-27T13:41:14.069Z,96843.72
2018-03-27T13:43:42.423Z,96841.22
2018-03-27T13:46:10.564Z,96832.47
2018-03-27T13:48:38.092Z,96813.83
2018-03-27T13:51:05.642Z,96825.55
2018-03-27T13:53:33.193Z,96816.80
2018-03-27T13:56:01.054Z,96817.43
2018-03-27T13:58:28.573Z,96818.03
2018-03-27T14:00:56.092Z,96817.24
2018-03-27T14:03:23.636Z,96811.69
2018-03-27T14:05:51.170Z,96803.06
2018-03-27T14:08:18.841Z,96790.97
2018-03-27T14:10:46.491Z,96803.59
2018-03-27T14:13:14.005Z,96802.34
2018-03-27T14:15:41.553Z,96792.95
2018-03-27T14:18:09.129Z,96793.42
2018-03-27T14:20:36.702Z,96796.88
2018-03-27T14:23:04.240Z,96782.88
2018-03-27T14:25:32.094Z,96785.41
2018-03-27T14:27:59.836Z,96781.55
2018-03-27T14:30:27.414Z,96776.67
2018-03-27T14:32:56.768Z,96772.20
2018-03-27T14:35:24.431Z,96774.20
2018-03-27T14:37:52.242Z,96771.09
2018-03-27T14:40:19.910Z,96773.70
2018-03-27T14:42:47.461Z,96774.91
2018-03-27T14:45:15.429Z,96771.36
2018-03-27T14:47:43.096Z,96756.65
2018-03-27T14:50:10.754Z,96763.00
2018-03-27T14:52:38.632Z,96753.36
2018-03-27T14:55:06.185Z,96748.99
2018-03-27T14:57:34.148Z,96746.34
2018-03-27T15:00:02.157Z,96740.78
2018-03-27T15:02:29.878Z,96735.47
2018-03-27T15:04:57.585Z,96732.34
2018-03-27T15:07:25.821Z,96724.27
2018-03-27T15:09:53.598Z,96727.28
2018-03-27T15:12:21.530Z,96723.98
2018-03-27T15:14:49.335Z,96718.25
2018-03-27T15:17:17.619Z,96727.66
2018-03-27T15:19:45.416Z,96721.52
2018-03-27T15:22:14.160Z,96724.09
2018-03-27T15:24:42.924Z,96716.49
2018-03-27T15:27:11.312Z,96711.43
2018-03-27T15:29:39.179Z,96705.77
2018-03-27T15:32:07.046Z,96706.08
2018-03-27T15:34:35.424Z,96705.34
2018-03-27T15:37:04.084Z,96703.39
2018-03-27T15:39:31.977Z,96695.03
2018-03-27T15:41:59.946Z,96696.81
2018-03-27T15:44:28.141Z,96686.44
2018-03-27T15:46:57.272Z,96690.67
2018-03-27T15:49:25.439Z,96690.06
2018-03-27T15:51:55.112Z,96684.48
2018-03-27T15:54:23.941Z,96679.73
2018-03-27T15:56:52.604Z,96666.41
2018-03-27T15:59:21.982Z,96672.19
2018-03-27T16:01:49.841Z,96681.57
2018-03-27T16:04:17.811Z,96676.77
2018-03-27T16:06:45.562Z,96675.31
2018-03-27T16:09:13.340Z,96675.25
2018-03-27T16:11:41.391Z,96669.46
2018-03-27T16:14:10.139Z,96663.11
2018-03-27T16:16:38.166Z,96663.31
2018-03-27T16:19:05.900Z,96656.11
2018-03-27T16:21:33.605Z,96662.06
2018-03-27T16:24:01.768Z,96656.92
2018-03-27T16:26:29.638Z,96655.35
2018-03-27T16:28:57.863Z,96652.66
2018-03-27T16:31:25.777Z,96651.32
2018-03-27T16:33:53.642Z,96650.88
2018-03-27T16:36:21.816Z,96650.66
2018-03-27T16:38:49.798Z,96649.71
2018-03-27T16:41:17.755Z,96645.59
2018-03-27T16:43:45.641Z,96648.95
2018-03-27T16:46:13.384Z,96647.79
2018-03-27T16:48:41.865Z,96652.80
2018-03-27T16:51:09.651Z,96650.12
2018-03-27T16:53:37.416Z,96654.84
2018-03-27T16:56:05.367Z,96655.63
2018-03-27T16:58:33.110Z,96652.94
2018-03-27T17:01:01.612Z,96651.44
2018-03-27T17:03:29.580Z,96658.92
2018-03-27T17:05:57.548Z,96654.02
2018-03-27T17:08:25.520Z,96641.71
2018-03-27T17:10:53.382Z,96642.05
2018-03-27T17:13:22.444Z,96642.09
2018-03-27T17:15:50.344Z,96642.92
2018-03-27T17:18:18.436Z,96645.39
2018-03-27T17:20:46.691Z,96641.55
2018-03-27T17:23:14.770Z,96649.17
2018-03-27T17:25:43.121Z,96649.77
2018-03-27T17:28:11.007Z,96659.83
2018-03-27T17:30:38.874Z,96650.04
2018-03-27T17:33:06.798Z,96661.80
2018-03-27T17:35:34.593Z,96658.16
2018-03-27T17:38:02.688Z,96653.92
2018-03-27T17:40:31.876Z,96658.36
2018-03-27T17:42:59.716Z,96656.31
2018-03-27T17:45:27.712Z,96664.47
2018-03-27T17:47:55.588Z,96670.17
2018-03-27T17:50:24.264Z,96670.66
2018-03-27T17:52:52.645Z,96664.22
2018-03-27T17:55:20.592Z,96669.69
2018-03-27T17:57:48.683Z,96665.62
2018-03-27T18:00:16.684Z,96668.49
2018-03-27T18:02:45.208Z,96667.64
2018-03-27T18:05:13.104Z,96681.75
2018-03-27T18:07:40.977Z,96678.41
2018-03-27T18:10:09.040Z,96675.66
2018-03-27T18:12:38.340Z,96674.50
2018-03-27T18:15:06.521Z,96675.19
2018-03-27T18:17:34.381Z,96671.78
2018-03-27T18:20:02.349Z,96660.02
2018-03-27T18:22:30.319Z,96664.41
2018-03-27T18:24:58.082Z,96668.59
2018-03-27T18:27:26.343Z,96668.48
2018-03-27T18:29:54.328Z,96671.20
2018-03-27T18:32:22.131Z,96666.37
2018-03-27T18:34:50.118Z,96669.26
2018-03-27T18:37:18.268Z,96660.86
2018-03-27T18:39:46.306Z,96661.13
2018-03-27T18:42:15.343Z,96657.92
2018-03-27T18:44:43.268Z,96654.84
2018-03-27T18:47:11.161Z,96651.49
2018-03-27T18:49:39.102Z,96651.98
2018-03-27T18:52:07.276Z,96653.24
2018-03-27T18:54:35.166Z,96650.19
2018-03-27T18:57:03.113Z,96646.83
2018-03-27T18:59:32.106Z,96643.97
2018-03-27T19:02:00.176Z,96635.69
2018-03-27T19:04:28.760Z,96630.80
2018-03-27T19:06:57.444Z,96633.64
2018-03-27T19:09:26.303Z,96632.59
2018-03-27T19:11:54.612Z,96628.28
2018-03-27T19:14:22.479Z,96630.88
2018-03-27T19:16:50.787Z,96631.59
2018-03-27T19:19:18.997Z,96627.30
2018-03-27T19:21:47.724Z,96634.70
2018-03-27T19:24:16.403Z,96634.14
2018-03-27T19:26:44.270Z,96638.01
2018-03-27T19:29:12.969Z,96645.45
2018-03-27T19:31:40.822Z,96637.70
2018-03-27T19:34:08.688Z,96637.64
2018-03-27T19:36:36.657Z,96636.17
2018-03-27T19:39:04.729Z,96637.08
2018-03-27T19:41:32.768Z,96621.84
2018-03-27T19:44:01.506Z,96628.22
2018-03-27T19:46:29.456Z,96621.66
2018-03-27T19:48:57.397Z,96627.80
2018-03-27T19:51:26.219Z,96617.36
2018-03-27T19:53:54.181Z,96611.91
2018-03-27T19:56:22.219Z,96615.03
2018-03-27T19:58:50.324Z,96613.86
2018-03-27T20:01:18.496Z,96612.05
2018-03-27T20:03:46.978Z,96620.38
2018-03-27T20:06:14.947Z,96613.80
2018-03-27T20:08:42.812Z,96613.03
2018-03-27T20:11:11.723Z,96608.92
2018-03-27T20:13:40.038Z,96608.52
2018-03-27T20:16:08.563Z,96597.62
2018-03-27T20:18:36.548Z,96600.58
2018-03-27T20:21:04.399Z,96598.88
2018-03-27T20:23:32.691Z,96600.15
2018-03-27T20:26:00.643Z,96590.88
2018-03-27T20:28:28.510Z,96587.13
2018-03-27T20:30:56.453Z,96588.59
2018-03-27T20:33:24.344Z,96582.97
2018-03-27T20:35:52.487Z,96588.91
2018-03-27T20:38:20.796Z,96585.20
2018-03-27T20:40:49.598Z,96583.88
2018-03-27T20:43:17.552Z,96574.20
2018-03-27T20:45:45.624Z,96578.41
2018-03-27T20:48:13.572Z,96570.52
2018-03-27T20:50:41.460Z,96568.14
2018-03-27T20:53:09.326Z,96567.13
2018-03-27T20:55:37.295Z,96558.61
2018-03-27T20:58:06.082Z,96548.75
2018-03-27T21:00:35.178Z,96553.16
2018-03-27T21:03:04.008Z,96554.11
2018-03-27T21:05:32.107Z,96552.53
2018-03-27T21:08:00.725Z,96547.51
2018-03-27T21:10:28.597Z,96555.77
2018-03-27T21:12:56.764Z,96547.42
2018-03-27T21:15:25.245Z,96546.53
2018-03-27T21:17:53.112Z,96548.23
2018-03-27T21:20:21.408Z,96541.09
2018-03-27T21:22:49.252Z,96544.47
2018-03-27T21:25:17.170Z,96539.56
2018-03-27T21:27:45.067Z,96542.45
2018-03-27T21:30:12.956Z,96532.79
2018-03-27T21:32:41.745Z,96530.07
2018-03-27T21:35:09.612Z,96522.53
2018-03-27T21:37:37.902Z,96524.02
2018-03-27T21:40:05.959Z,96514.92
2018-03-27T21:42:33.825Z,96512.33
2018-03-27T21:45:02.631Z,96510.31
2018-03-27T21:47:30.479Z,96509.47
2018-03-27T21:49:59.882Z,96516.95
2018-03-27T21:52:29.080Z,96513.77
2018-03-27T21:54:56.947Z,96500.59
2018-03-27T21:57:25.019Z,96502.94
2018-03-27T21:59:52.787Z,96507.87
2018-03-27T22:02:20.721Z,96500.73
2018-03-27T22:04:49.453Z,96504.23
2018-03-27T22:07:17.303Z,96500.97
2018-03-27T22:09:45.072Z,96492.89
2018-03-27T22:12:12.962Z,96489.98
2018-03-27T22:14:41.821Z,96490.75
2018-03-27T22:17:09.692Z,96500.26
2018-03-27T22:19:37.639Z,96496.23
2018-03-27T22:22:05.528Z,96500.41
2018-03-27T22:24:33.291Z,96491.50
2018-03-27T22:27:01.157Z,96487.31
2018-03-27T22:29:28.982Z,96485.66
2018-03-27T22:31:56.682Z,96488.34
2018-03-27T22:34:24.431Z,96487.75
2018-03-27T22:36:52.135Z,96483.11
2018-03-27T22:39:19.780Z,96477.95
2018-03-27T22:41:47.295Z,96477.72
2018-03-27T22:44:15.096Z,96473.64
2018-03-27T22:46:42.662Z,96464.80
2018-03-27T22:49:10.282Z,96466.37
2018-03-27T22:51:37.841Z,96468.19
2018-03-27T22:54:05.645Z,96457.08
2018-03-27T22:56:33.160Z,96467.38
2018-03-27T22:59:00.703Z,96467.47
2018-03-27T23:01:29.048Z,96461.95
2018-03-27T23:03:56.581Z,96461.36
2018-03-27T23:06:24.186Z,96462.75
2018-03-27T23:08:51.781Z,96461.19
2018-03-27T23:11:19.302Z,96457.69
2018-03-27T23:13:46.837Z,96464.72
2018-03-27T23:16:14.357Z,96457.14
2018-03-27T23:18:41.934Z,96454.91
2018-03-27T23:21:09.497Z,96460.18
2018-03-27T23:23:37.019Z,96451.45
2018-03-27T23:26:04.541Z,96457.02
2018-03-27T23:28:32.283Z,96454.62
2018-03-27T23:31:00.849Z,96445.83
2018-03-27T23:33:28.434Z,96449.06
2018-03-27T23:35:56.401Z,96452.51
2018-03-27T23:38:23.933Z,96456.85
2018-03-27T23:40:51.513Z,96455.80
2018-03-27T23:43:19.975Z,96452.53
2018-03-27T23:45:47.849Z,96456.13
2018-03-27T23:48:15.366Z,96469.08
2018-03-27T23:50:42.886Z,96459.59
2018-03-27T23:53:10.899Z,96457.91
2018-03-27T23:55:38.415Z,96455.94
2018-03-27T23:58:05.970Z,96452.66
